Terminal Aerodrome Forecast
Issued by NWS

Home | Current Version | Previous Version | Graphics & Text | Print | Product List | Glossary On
Versions: 1 2 3 4 5 6 7 8 9 10 11 12 13 14 15 16 17
000
FTUS43 KMPX 241121
TAFRNH
TAF
KRNH 241121Z 2412/2512 27005KT 6SM BR SCT007 BKN013 OVC130
     FM241400 25005KT P6SM SCT012 OVC040
     FM242000 28005KT P6SM OVC020
     FM250200 04006KT 2SM -SN OVC012
      TEMPO 2503/2506 1SM -SN VV006
     FM251000 02012KT P6SM SCT007 OVC020=

USA.gov is the U.S. government's official web portal to all federal, state and local government web resources and services.